sensor_id;sensor_type;location;lat;lon;timestamp;P1;durP1;ratioP1;P2;durP2;ratioP2
39612;SDS011;25303;48.896;13.342;2023-08-01T00:01:49;3.13;;;1.73;;
39612;SDS011;25303;48.896;13.342;2023-08-01T00:04:32;4.25;;;1.58;;
39612;SDS011;25303;48.896;13.342;2023-08-01T00:07:16;4.25;;;1.10;;
39612;SDS011;25303;48.896;13.342;2023-08-01T00:09:59;2.25;;;1.10;;
39612;SDS011;25303;48.896;13.342;2023-08-01T00:12:42;2.85;;;1.30;;
39612;SDS011;25303;48.896;13.342;2023-08-01T00:15:25;3.75;;;1.50;;
39612;SDS011;25303;48.896;13.342;2023-08-01T00:18:08;3.40;;;1.60;;
39612;SDS011;25303;48.896;13.342;2023-08-01T00:20:51;3.08;;;1.50;;
39612;SDS011;25303;48.896;13.342;2023-08-01T00:23:36;3.30;;;1.40;;
39612;SDS011;25303;48.896;13.342;2023-08-01T00:26:19;2.67;;;1.40;;
39612;SDS011;25303;48.896;13.342;2023-08-01T00:29:02;2.50;;;1.60;;
39612;SDS011;25303;48.896;13.342;2023-08-01T00:31:45;3.53;;;1.75;;
39612;SDS011;25303;48.896;13.342;2023-08-01T00:34:28;3.15;;;1.63;;
39612;SDS011;25303;48.896;13.342;2023-08-01T00:37:12;5.07;;;1.70;;
39612;SDS011;25303;48.896;13.342;2023-08-01T00:39:57;3.25;;;1.85;;
39612;SDS011;25303;48.896;13.342;2023-08-01T00:42:40;2.33;;;1.40;;
39612;SDS011;25303;48.896;13.342;2023-08-01T00:45:23;2.72;;;1.50;;
39612;SDS011;25303;48.896;13.342;2023-08-01T00:48:06;4.13;;;1.77;;
39612;SDS011;25303;48.896;13.342;2023-08-01T00:50:49;3.05;;;1.48;;
39612;SDS011;25303;48.896;13.342;2023-08-01T00:53:32;1.52;;;1.08;;
39612;SDS011;25303;48.896;13.342;2023-08-01T00:56:18;3.45;;;1.50;;
39612;SDS011;25303;48.896;13.342;2023-08-01T00:59:01;2.47;;;1.50;;
39612;SDS011;25303;48.896;13.342;2023-08-01T01:01:44;2.40;;;1.40;;
39612;SDS011;25303;48.896;13.342;2023-08-01T01:04:27;2.78;;;1.60;;
39612;SDS011;25303;48.896;13.342;2023-08-01T01:07:10;4.07;;;1.67;;
39612;SDS011;25303;48.896;13.342;2023-08-01T01:09:55;2.35;;;1.60;;
39612;SDS011;25303;48.896;13.342;2023-08-01T01:12:39;2.88;;;1.70;;
39612;SDS011;25303;48.896;13.342;2023-08-01T01:15:22;4.32;;;2.10;;
39612;SDS011;25303;48.896;13.342;2023-08-01T01:18:05;5.15;;;2.15;;
39612;SDS011;25303;48.896;13.342;2023-08-01T01:20:49;3.00;;;1.70;;
39612;SDS011;25303;48.896;13.342;2023-08-01T01:23:32;4.00;;;1.80;;
39612;SDS011;25303;48.896;13.342;2023-08-01T01:26:16;3.67;;;2.03;;
39612;SDS011;25303;48.896;13.342;2023-08-01T01:29:02;3.85;;;2.03;;
39612;SDS011;25303;48.896;13.342;2023-08-01T01:31:50;5.28;;;2.30;;
39612;SDS011;25303;48.896;13.342;2023-08-01T01:34:34;3.77;;;2.00;;
39612;SDS011;25303;48.896;13.342;2023-08-01T01:37:18;6.30;;;2.10;;
39612;SDS011;25303;48.896;13.342;2023-08-01T01:40:01;4.63;;;2.45;;
39612;SDS011;25303;48.896;13.342;2023-08-01T01:42:44;3.78;;;2.20;;
39612;SDS011;25303;48.896;13.342;2023-08-01T01:45:27;3.65;;;1.92;;
39612;SDS011;25303;48.896;13.342;2023-08-01T01:48:10;5.70;;;2.55;;
39612;SDS011;25303;48.896;13.342;2023-08-01T01:50:53;5.32;;;2.40;;
39612;SDS011;25303;48.896;13.342;2023-08-01T01:53:38;5.03;;;2.30;;
39612;SDS011;25303;48.896;13.342;2023-08-01T01:56:21;4.68;;;2.58;;
39612;SDS011;25303;48.896;13.342;2023-08-01T01:59:04;4.05;;;2.40;;
39612;SDS011;25303;48.896;13.342;2023-08-01T02:01:47;5.97;;;2.45;;
39612;SDS011;25303;48.896;13.342;2023-08-01T02:04:30;4.65;;;2.53;;
39612;SDS011;25303;48.896;13.342;2023-08-01T02:07:13;7.55;;;2.80;;
39612;SDS011;25303;48.896;13.342;2023-08-01T02:09:58;8.95;;;2.30;;
39612;SDS011;25303;48.896;13.342;2023-08-01T02:15:24;4.90;;;2.40;;
39612;SDS011;25303;48.896;13.342;2023-08-01T02:18:07;4.85;;;2.17;;
39612;SDS011;25303;48.896;13.342;2023-08-01T02:20:50;6.30;;;2.08;;
39612;SDS011;25303;48.896;13.342;2023-08-01T02:23:34;3.30;;;2.00;;
39612;SDS011;25303;48.896;13.342;2023-08-01T02:26:20;6.65;;;2.45;;
39612;SDS011;25303;48.896;13.342;2023-08-01T02:29:05;3.58;;;1.83;;
39612;SDS011;25303;48.896;13.342;2023-08-01T02:31:48;3.85;;;2.10;;
39612;SDS011;25303;48.896;13.342;2023-08-01T02:34:31;4.07;;;2.00;;
39612;SDS011;25303;48.896;13.342;2023-08-01T02:37:14;4.68;;;2.40;;
39612;SDS011;25303;48.896;13.342;2023-08-01T02:39:57;2.88;;;1.70;;
39612;SDS011;25303;48.896;13.342;2023-08-01T02:42:41;4.65;;;2.20;;
39612;SDS011;25303;48.896;13.342;2023-08-01T02:45:24;10.40;;;2.80;;
39612;SDS011;25303;48.896;13.342;2023-08-01T02:48:07;4.68;;;2.40;;
39612;SDS011;25303;48.896;13.342;2023-08-01T02:50:51;5.75;;;2.17;;
39612;SDS011;25303;48.896;13.342;2023-08-01T02:53:33;8.10;;;2.75;;
39612;SDS011;25303;48.896;13.342;2023-08-01T02:56:16;6.85;;;2.60;;
39612;SDS011;25303;48.896;13.342;2023-08-01T02:59:01;6.70;;;2.75;;
39612;SDS011;25303;48.896;13.342;2023-08-01T03:01:46;5.50;;;2.40;;
39612;SDS011;25303;48.896;13.342;2023-08-01T03:04:29;5.50;;;2.53;;
39612;SDS011;25303;48.896;13.342;2023-08-01T03:07:27;4.10;;;2.30;;
39612;SDS011;25303;48.896;13.342;2023-08-01T03:10:10;6.30;;;2.20;;
39612;SDS011;25303;48.896;13.342;2023-08-01T03:13:03;3.22;;;1.70;;
39612;SDS011;25303;48.896;13.342;2023-08-01T03:15:48;3.55;;;2.00;;
39612;SDS011;25303;48.896;13.342;2023-08-01T03:18:31;3.03;;;1.70;;
39612;SDS011;25303;48.896;13.342;2023-08-01T03:21:14;3.03;;;1.60;;
39612;SDS011;25303;48.896;13.342;2023-08-01T03:23:57;3.67;;;1.55;;
39612;SDS011;25303;48.896;13.342;2023-08-01T03:26:40;2.53;;;1.50;;
39612;SDS011;25303;48.896;13.342;2023-08-01T03:29:23;3.72;;;1.80;;
39612;SDS011;25303;48.896;13.342;2023-08-01T03:32:08;2.80;;;1.88;;
39612;SDS011;25303;48.896;13.342;2023-08-01T03:34:51;3.65;;;1.90;;
39612;SDS011;25303;48.896;13.342;2023-08-01T03:37:34;3.63;;;2.10;;
39612;SDS011;25303;48.896;13.342;2023-08-01T03:43:02;2.65;;;1.70;;
39612;SDS011;25303;48.896;13.342;2023-08-01T03:45:46;4.63;;;3.03;;
39612;SDS011;25303;48.896;13.342;2023-08-01T03:48:31;7.18;;;2.75;;
39612;SDS011;25303;48.896;13.342;2023-08-01T03:51:14;6.15;;;2.97;;
39612;SDS011;25303;48.896;13.342;2023-08-01T03:53:59;5.47;;;2.63;;
39612;SDS011;25303;48.896;13.342;2023-08-01T03:59:37;6.88;;;3.15;;
39612;SDS011;25303;48.896;13.342;2023-08-01T04:02:20;9.45;;;3.38;;
39612;SDS011;25303;48.896;13.342;2023-08-01T04:05:06;6.43;;;3.17;;
39612;SDS011;25303;48.896;13.342;2023-08-01T04:07:50;5.55;;;3.00;;
39612;SDS011;25303;48.896;13.342;2023-08-01T04:10:36;9.00;;;3.75;;
39612;SDS011;25303;48.896;13.342;2023-08-01T04:13:19;6.32;;;3.35;;
39612;SDS011;25303;48.896;13.342;2023-08-01T04:16:02;8.45;;;3.85;;
39612;SDS011;25303;48.896;13.342;2023-08-01T04:18:45;7.68;;;3.67;;
39612;SDS011;25303;48.896;13.342;2023-08-01T04:21:29;6.10;;;2.65;;
39612;SDS011;25303;48.896;13.342;2023-08-01T04:24:12;7.43;;;2.42;;
39612;SDS011;25303;48.896;13.342;2023-08-01T04:26:55;5.97;;;2.72;;
39612;SDS011;25303;48.896;13.342;2023-08-01T04:29:38;5.93;;;2.97;;
39612;SDS011;25303;48.896;13.342;2023-08-01T04:32:21;5.65;;;3.10;;
39612;SDS011;25303;48.896;13.342;2023-08-01T04:35:04;5.40;;;2.92;;
39612;SDS011;25303;48.896;13.342;2023-08-01T04:37:49;5.70;;;2.85;;
39612;SDS011;25303;48.896;13.342;2023-08-01T04:40:32;6.95;;;3.50;;
39612;SDS011;25303;48.896;13.342;2023-08-01T04:43:15;6.30;;;2.97;;
39612;SDS011;25303;48.896;13.342;2023-08-01T04:45:58;4.20;;;2.42;;
39612;SDS011;25303;48.896;13.342;2023-08-01T04:48:41;3.25;;;2.20;;
39612;SDS011;25303;48.896;13.342;2023-08-01T04:51:24;4.80;;;1.88;;
39612;SDS011;25303;48.896;13.342;2023-08-01T04:54:08;2.75;;;1.45;;
39612;SDS011;25303;48.896;13.342;2023-08-01T04:56:51;3.15;;;1.98;;
39612;SDS011;25303;48.896;13.342;2023-08-01T04:59:34;5.10;;;2.10;;
39612;SDS011;25303;48.896;13.342;2023-08-01T05:02:17;3.50;;;1.90;;
39612;SDS011;25303;48.896;13.342;2023-08-01T05:05:00;3.92;;;2.03;;
39612;SDS011;25303;48.896;13.342;2023-08-01T05:07:43;5.35;;;2.25;;
39612;SDS011;25303;48.896;13.342;2023-08-01T05:10:28;4.50;;;2.33;;
39612;SDS011;25303;48.896;13.342;2023-08-01T05:13:10;4.78;;;2.08;;
39612;SDS011;25303;48.896;13.342;2023-08-01T05:15:53;3.63;;;2.50;;
39612;SDS011;25303;48.896;13.342;2023-08-01T05:18:36;4.45;;;2.35;;
39612;SDS011;25303;48.896;13.342;2023-08-01T05:21:19;3.65;;;2.38;;
39612;SDS011;25303;48.896;13.342;2023-08-01T05:24:02;5.55;;;2.40;;
39612;SDS011;25303;48.896;13.342;2023-08-01T05:26:47;3.30;;;2.10;;
39612;SDS011;25303;48.896;13.342;2023-08-01T05:29:30;3.45;;;2.20;;
39612;SDS011;25303;48.896;13.342;2023-08-01T05:32:13;4.65;;;2.70;;
39612;SDS011;25303;48.896;13.342;2023-08-01T05:34:56;5.03;;;2.50;;
39612;SDS011;25303;48.896;13.342;2023-08-01T05:37:41;4.28;;;2.45;;
39612;SDS011;25303;48.896;13.342;2023-08-01T05:40:24;4.32;;;2.60;;
39612;SDS011;25303;48.896;13.342;2023-08-01T05:43:08;6.32;;;3.00;;
39612;SDS011;25303;48.896;13.342;2023-08-01T05:45:51;7.40;;;3.72;;
39612;SDS011;25303;48.896;13.342;2023-08-01T05:48:35;7.68;;;3.08;;
39612;SDS011;25303;48.896;13.342;2023-08-01T05:51:17;7.63;;;3.13;;
39612;SDS011;25303;48.896;13.342;2023-08-01T05:54:00;5.78;;;3.05;;
39612;SDS011;25303;48.896;13.342;2023-08-01T05:56:43;4.55;;;2.60;;
39612;SDS011;25303;48.896;13.342;2023-08-01T05:59:28;6.10;;;2.88;;
39612;SDS011;25303;48.896;13.342;2023-08-01T06:02:11;4.93;;;2.97;;
39612;SDS011;25303;48.896;13.342;2023-08-01T06:04:54;4.85;;;2.65;;
39612;SDS011;25303;48.896;13.342;2023-08-01T06:07:37;5.68;;;3.15;;
39612;SDS011;25303;48.896;13.342;2023-08-01T06:10:21;5.13;;;3.10;;
39612;SDS011;25303;48.896;13.342;2023-08-01T06:13:04;4.55;;;2.92;;
39612;SDS011;25303;48.896;13.342;2023-08-01T06:15:48;5.53;;;3.33;;
39612;SDS011;25303;48.896;13.342;2023-08-01T06:18:32;5.43;;;3.08;;
39612;SDS011;25303;48.896;13.342;2023-08-01T06:21:15;5.03;;;3.00;;
39612;SDS011;25303;48.896;13.342;2023-08-01T06:23:58;4.40;;;2.78;;
39612;SDS011;25303;48.896;13.342;2023-08-01T06:26:41;5.43;;;2.97;;
39612;SDS011;25303;48.896;13.342;2023-08-01T06:29:24;4.88;;;3.00;;
39612;SDS011;25303;48.896;13.342;2023-08-01T06:32:08;3.97;;;2.50;;
39612;SDS011;25303;48.896;13.342;2023-08-01T06:34:51;5.30;;;2.83;;
39612;SDS011;25303;48.896;13.342;2023-08-01T06:37:34;4.50;;;2.83;;
39612;SDS011;25303;48.896;13.342;2023-08-01T06:40:17;5.25;;;2.83;;
39612;SDS011;25303;48.896;13.342;2023-08-01T06:43:00;4.50;;;3.03;;
39612;SDS011;25303;48.896;13.342;2023-08-01T06:45:43;5.55;;;3.45;;
39612;SDS011;25303;48.896;13.342;2023-08-01T06:48:28;7.78;;;4.32;;
39612;SDS011;25303;48.896;13.342;2023-08-01T06:51:12;6.07;;;3.80;;
39612;SDS011;25303;48.896;13.342;2023-08-01T06:53:55;6.57;;;3.70;;
39612;SDS011;25303;48.896;13.342;2023-08-01T06:56:38;7.72;;;3.28;;
39612;SDS011;25303;48.896;13.342;2023-08-01T06:59:22;6.25;;;3.38;;
39612;SDS011;25303;48.896;13.342;2023-08-01T07:02:05;5.05;;;3.00;;
39612;SDS011;25303;48.896;13.342;2023-08-01T07:04:51;6.18;;;3.20;;
39612;SDS011;25303;48.896;13.342;2023-08-01T07:07:34;5.40;;;3.25;;
39612;SDS011;25303;48.896;13.342;2023-08-01T07:10:17;6.13;;;3.42;;
39612;SDS011;25303;48.896;13.342;2023-08-01T07:13:01;7.15;;;3.67;;
39612;SDS011;25303;48.896;13.342;2023-08-01T07:15:45;4.90;;;3.20;;
39612;SDS011;25303;48.896;13.342;2023-08-01T07:18:28;4.55;;;3.20;;
39612;SDS011;25303;48.896;13.342;2023-08-01T07:21:13;5.30;;;3.13;;
39612;SDS011;25303;48.896;13.342;2023-08-01T07:23:56;5.43;;;3.35;;
39612;SDS011;25303;48.896;13.342;2023-08-01T07:26:40;6.57;;;3.40;;
39612;SDS011;25303;48.896;13.342;2023-08-01T07:29:23;4.88;;;3.10;;
39612;SDS011;25303;48.896;13.342;2023-08-01T07:32:06;5.38;;;3.00;;
39612;SDS011;25303;48.896;13.342;2023-08-01T07:34:49;5.47;;;3.17;;
39612;SDS011;25303;48.896;13.342;2023-08-01T07:37:34;3.83;;;2.72;;
39612;SDS011;25303;48.896;13.342;2023-08-01T07:40:19;3.97;;;2.65;;
39612;SDS011;25303;48.896;13.342;2023-08-01T07:43:02;4.22;;;2.60;;
39612;SDS011;25303;48.896;13.342;2023-08-01T07:45:45;4.72;;;2.20;;
39612;SDS011;25303;48.896;13.342;2023-08-01T07:48:31;3.85;;;2.42;;
39612;SDS011;25303;48.896;13.342;2023-08-01T07:51:14;34.55;;;3.10;;
39612;SDS011;25303;48.896;13.342;2023-08-01T07:53:59;8.15;;;3.03;;
39612;SDS011;25303;48.896;13.342;2023-08-01T07:56:42;8.20;;;2.80;;
39612;SDS011;25303;48.896;13.342;2023-08-01T08:02:09;5.50;;;2.72;;
39612;SDS011;25303;48.896;13.342;2023-08-01T08:04:52;4.63;;;3.42;;
39612;SDS011;25303;48.896;13.342;2023-08-01T08:07:36;6.85;;;3.92;;
39612;SDS011;25303;48.896;13.342;2023-08-01T08:10:20;4.90;;;3.28;;
39612;SDS011;25303;48.896;13.342;2023-08-01T08:13:03;5.40;;;3.17;;
39612;SDS011;25303;48.896;13.342;2023-08-01T08:15:46;4.80;;;2.97;;
39612;SDS011;25303;48.896;13.342;2023-08-01T08:18:29;5.65;;;3.42;;
39612;SDS011;25303;48.896;13.342;2023-08-01T08:21:12;5.43;;;3.30;;
39612;SDS011;25303;48.896;13.342;2023-08-01T08:23:55;7.95;;;3.90;;
39612;SDS011;25303;48.896;13.342;2023-08-01T08:26:40;5.63;;;3.40;;
39612;SDS011;25303;48.896;13.342;2023-08-01T08:29:23;5.15;;;3.45;;
39612;SDS011;25303;48.896;13.342;2023-08-01T08:32:07;5.28;;;3.70;;
39612;SDS011;25303;48.896;13.342;2023-08-01T08:34:50;6.07;;;4.05;;
39612;SDS011;25303;48.896;13.342;2023-08-01T08:37:33;6.78;;;4.03;;
39612;SDS011;25303;48.896;13.342;2023-08-01T08:40:16;5.75;;;3.55;;
39612;SDS011;25303;48.896;13.342;2023-08-01T08:43:01;5.68;;;3.80;;
39612;SDS011;25303;48.896;13.342;2023-08-01T08:45:45;7.32;;;4.45;;
39612;SDS011;25303;48.896;13.342;2023-08-01T08:48:31;8.02;;;4.38;;
39612;SDS011;25303;48.896;13.342;2023-08-01T08:51:15;8.47;;;4.50;;
39612;SDS011;25303;48.896;13.342;2023-08-01T08:53:59;8.57;;;4.90;;
39612;SDS011;25303;48.896;13.342;2023-08-01T08:56:44;6.10;;;4.38;;
39612;SDS011;25303;48.896;13.342;2023-08-01T08:59:29;8.60;;;4.10;;
39612;SDS011;25303;48.896;13.342;2023-08-01T09:02:13;6.22;;;4.38;;
39612;SDS011;25303;48.896;13.342;2023-08-01T09:07:42;8.20;;;4.50;;
39612;SDS011;25303;48.896;13.342;2023-08-01T09:10:28;8.45;;;3.67;;
39612;SDS011;25303;48.896;13.342;2023-08-01T09:13:11;8.38;;;4.70;;
39612;SDS011;25303;48.896;13.342;2023-08-01T09:15:55;7.68;;;4.28;;
39612;SDS011;25303;48.896;13.342;2023-08-01T09:18:46;5.97;;;4.00;;
39612;SDS011;25303;48.896;13.342;2023-08-01T09:21:31;6.72;;;4.20;;
39612;SDS011;25303;48.896;13.342;2023-08-01T09:24:16;9.00;;;4.75;;
39612;SDS011;25303;48.896;13.342;2023-08-01T09:29:45;4.78;;;3.45;;
39612;SDS011;25303;48.896;13.342;2023-08-01T09:32:31;7.97;;;4.07;;
39612;SDS011;25303;48.896;13.342;2023-08-01T09:35:15;6.60;;;4.40;;
39612;SDS011;25303;48.896;13.342;2023-08-01T09:37:59;6.38;;;3.70;;
39612;SDS011;25303;48.896;13.342;2023-08-01T09:40:43;5.15;;;3.40;;
39612;SDS011;25303;48.896;13.342;2023-08-01T09:43:32;5.50;;;3.55;;
39612;SDS011;25303;48.896;13.342;2023-08-01T09:46:16;8.75;;;3.95;;
39612;SDS011;25303;48.896;13.342;2023-08-01T09:49:07;6.07;;;3.60;;
39612;SDS011;25303;48.896;13.342;2023-08-01T09:51:51;6.45;;;3.78;;
39612;SDS011;25303;48.896;13.342;2023-08-01T09:54:34;6.57;;;4.03;;
39612;SDS011;25303;48.896;13.342;2023-08-01T09:57:17;7.47;;;3.85;;
39612;SDS011;25303;48.896;13.342;2023-08-01T10:00:01;7.15;;;3.78;;
39612;SDS011;25303;48.896;13.342;2023-08-01T10:02:52;5.78;;;3.78;;
39612;SDS011;25303;48.896;13.342;2023-08-01T10:05:37;6.38;;;4.13;;
39612;SDS011;25303;48.896;13.342;2023-08-01T10:08:22;5.93;;;3.80;;
39612;SDS011;25303;48.896;13.342;2023-08-01T10:11:05;4.95;;;3.22;;
39612;SDS011;25303;48.896;13.342;2023-08-01T10:13:49;7.30;;;3.60;;
39612;SDS011;25303;48.896;13.342;2023-08-01T10:16:32;6.03;;;3.42;;
39612;SDS011;25303;48.896;13.342;2023-08-01T10:19:19;6.78;;;3.95;;
39612;SDS011;25303;48.896;13.342;2023-08-01T10:22:04;4.32;;;2.88;;
39612;SDS011;25303;48.896;13.342;2023-08-01T10:24:49;6.88;;;4.10;;
39612;SDS011;25303;48.896;13.342;2023-08-01T10:27:33;6.70;;;3.95;;
39612;SDS011;25303;48.896;13.342;2023-08-01T10:30:25;7.22;;;4.13;;
39612;SDS011;25303;48.896;13.342;2023-08-01T10:33:09;7.72;;;4.47;;
39612;SDS011;25303;48.896;13.342;2023-08-01T10:35:54;6.75;;;3.80;;
39612;SDS011;25303;48.896;13.342;2023-08-01T10:38:45;8.88;;;4.03;;
39612;SDS011;25303;48.896;13.342;2023-08-01T10:41:30;6.47;;;3.95;;
39612;SDS011;25303;48.896;13.342;2023-08-01T10:44:14;5.07;;;3.47;;
39612;SDS011;25303;48.896;13.342;2023-08-01T10:46:59;6.50;;;3.45;;
39612;SDS011;25303;48.896;13.342;2023-08-01T10:49:43;7.28;;;3.53;;
39612;SDS011;25303;48.896;13.342;2023-08-01T10:52:27;7.03;;;3.88;;
39612;SDS011;25303;48.896;13.342;2023-08-01T10:55:12;7.18;;;3.80;;
39612;SDS011;25303;48.896;13.342;2023-08-01T11:00:38;7.13;;;3.53;;
39612;SDS011;25303;48.896;13.342;2023-08-01T11:03:21;4.88;;;2.90;;
39612;SDS011;25303;48.896;13.342;2023-08-01T11:06:05;4.88;;;2.90;;
39612;SDS011;25303;48.896;13.342;2023-08-01T11:08:48;5.43;;;3.28;;
39612;SDS011;25303;48.896;13.342;2023-08-01T11:11:32;6.00;;;3.30;;
39612;SDS011;25303;48.896;13.342;2023-08-01T11:14:15;7.30;;;4.00;;
39612;SDS011;25303;48.896;13.342;2023-08-01T11:16:58;5.57;;;3.42;;
39612;SDS011;25303;48.896;13.342;2023-08-01T11:19:44;5.82;;;3.70;;
39612;SDS011;25303;48.896;13.342;2023-08-01T11:22:27;5.82;;;3.25;;
39612;SDS011;25303;48.896;13.342;2023-08-01T11:25:12;4.97;;;3.25;;
39612;SDS011;25303;48.896;13.342;2023-08-01T11:27:56;5.75;;;3.28;;
39612;SDS011;25303;48.896;13.342;2023-08-01T11:30:39;4.40;;;2.95;;
39612;SDS011;25303;48.896;13.342;2023-08-01T11:36:07;5.90;;;3.25;;
39612;SDS011;25303;48.896;13.342;2023-08-01T11:38:51;5.50;;;3.03;;
39612;SDS011;25303;48.896;13.342;2023-08-01T11:41:34;5.78;;;2.55;;
39612;SDS011;25303;48.896;13.342;2023-08-01T11:44:22;5.40;;;2.60;;
39612;SDS011;25303;48.896;13.342;2023-08-01T11:47:10;4.95;;;2.65;;
39612;SDS011;25303;48.896;13.342;2023-08-01T11:49:54;4.22;;;2.35;;
39612;SDS011;25303;48.896;13.342;2023-08-01T11:52:37;4.07;;;2.70;;
39612;SDS011;25303;48.896;13.342;2023-08-01T11:55:20;5.22;;;2.38;;
39612;SDS011;25303;48.896;13.342;2023-08-01T11:58:05;5.60;;;2.70;;
39612;SDS011;25303;48.896;13.342;2023-08-01T12:00:49;2.72;;;1.95;;
39612;SDS011;25303;48.896;13.342;2023-08-01T12:03:41;4.15;;;2.40;;
39612;SDS011;25303;48.896;13.342;2023-08-01T12:06:25;4.25;;;2.35;;
39612;SDS011;25303;48.896;13.342;2023-08-01T12:09:09;3.92;;;2.30;;
39612;SDS011;25303;48.896;13.342;2023-08-01T12:11:57;3.70;;;2.28;;
39612;SDS011;25303;48.896;13.342;2023-08-01T12:14:41;4.63;;;2.40;;
39612;SDS011;25303;48.896;13.342;2023-08-01T12:17:26;3.92;;;2.35;;
39612;SDS011;25303;48.896;13.342;2023-08-01T12:22:52;3.78;;;2.08;;
39612;SDS011;25303;48.896;13.342;2023-08-01T12:25:35;2.63;;;2.00;;
39612;SDS011;25303;48.896;13.342;2023-08-01T12:28:18;3.95;;;2.28;;
39612;SDS011;25303;48.896;13.342;2023-08-01T12:31:01;4.90;;;2.55;;
39612;SDS011;25303;48.896;13.342;2023-08-01T12:33:46;4.28;;;2.38;;
39612;SDS011;25303;48.896;13.342;2023-08-01T12:39:12;4.20;;;2.40;;
39612;SDS011;25303;48.896;13.342;2023-08-01T12:41:55;2.90;;;2.08;;
39612;SDS011;25303;48.896;13.342;2023-08-01T12:44:38;4.72;;;2.97;;
39612;SDS011;25303;48.896;13.342;2023-08-01T12:47:21;4.82;;;2.78;;
39612;SDS011;25303;48.896;13.342;2023-08-01T12:50:06;5.22;;;3.10;;
39612;SDS011;25303;48.896;13.342;2023-08-01T12:52:51;5.63;;;2.92;;
39612;SDS011;25303;48.896;13.342;2023-08-01T12:55:34;4.72;;;2.95;;
39612;SDS011;25303;48.896;13.342;2023-08-01T12:58:17;6.35;;;3.20;;
39612;SDS011;25303;48.896;13.342;2023-08-01T13:01:01;6.35;;;3.53;;
39612;SDS011;25303;48.896;13.342;2023-08-01T13:03:45;5.68;;;3.30;;
39612;SDS011;25303;48.896;13.342;2023-08-01T13:06:29;6.60;;;4.13;;
39612;SDS011;25303;48.896;13.342;2023-08-01T13:09:12;5.43;;;3.38;;
39612;SDS011;25303;48.896;13.342;2023-08-01T13:11:58;6.00;;;3.80;;
39612;SDS011;25303;48.896;13.342;2023-08-01T13:14:42;5.97;;;3.60;;
39612;SDS011;25303;48.896;13.342;2023-08-01T13:17:25;5.40;;;3.60;;
39612;SDS011;25303;48.896;13.342;2023-08-01T13:20:08;7.28;;;3.60;;
39612;SDS011;25303;48.896;13.342;2023-08-01T13:22:53;6.68;;;3.40;;
39612;SDS011;25303;48.896;13.342;2023-08-01T13:25:36;5.80;;;3.15;;
39612;SDS011;25303;48.896;13.342;2023-08-01T13:28:19;6.80;;;3.40;;
39612;SDS011;25303;48.896;13.342;2023-08-01T13:31:02;8.45;;;3.53;;
39612;SDS011;25303;48.896;13.342;2023-08-01T13:33:45;5.93;;;3.50;;
39612;SDS011;25303;48.896;13.342;2023-08-01T13:36:28;5.05;;;2.60;;
39612;SDS011;25303;48.896;13.342;2023-08-01T13:39:12;5.18;;;2.83;;
39612;SDS011;25303;48.896;13.342;2023-08-01T13:41:55;5.63;;;2.78;;
39612;SDS011;25303;48.896;13.342;2023-08-01T13:44:39;3.53;;;2.30;;
39612;SDS011;25303;48.896;13.342;2023-08-01T13:47:22;4.07;;;2.47;;
39612;SDS011;25303;48.896;13.342;2023-08-01T13:50:06;3.80;;;2.15;;
39612;SDS011;25303;48.896;13.342;2023-08-01T13:52:50;4.28;;;2.50;;
39612;SDS011;25303;48.896;13.342;2023-08-01T13:55:34;3.33;;;2.40;;
39612;SDS011;25303;48.896;13.342;2023-08-01T13:58:17;3.75;;;2.15;;
39612;SDS011;25303;48.896;13.342;2023-08-01T14:01:04;4.25;;;1.77;;
39612;SDS011;25303;48.896;13.342;2023-08-01T14:03:48;3.83;;;1.92;;
39612;SDS011;25303;48.896;13.342;2023-08-01T14:06:31;2.95;;;1.88;;
39612;SDS011;25303;48.896;13.342;2023-08-01T14:09:14;3.92;;;1.70;;
39612;SDS011;25303;48.896;13.342;2023-08-01T14:11:59;2.42;;;1.70;;
39612;SDS011;25303;48.896;13.342;2023-08-01T14:14:42;4.60;;;1.60;;
39612;SDS011;25303;48.896;13.342;2023-08-01T14:17:25;3.08;;;1.83;;
39612;SDS011;25303;48.896;13.342;2023-08-01T14:20:08;3.25;;;1.35;;
39612;SDS011;25303;48.896;13.342;2023-08-01T14:22:51;1.77;;;1.20;;
39612;SDS011;25303;48.896;13.342;2023-08-01T14:25:34;2.17;;;1.40;;
39612;SDS011;25303;48.896;13.342;2023-08-01T14:28:19;1.90;;;1.17;;
39612;SDS011;25303;48.896;13.342;2023-08-01T14:31:02;3.10;;;1.30;;
39612;SDS011;25303;48.896;13.342;2023-08-01T14:33:45;2.67;;;1.30;;
39612;SDS011;25303;48.896;13.342;2023-08-01T14:36:28;2.70;;;1.30;;
39612;SDS011;25303;48.896;13.342;2023-08-01T14:39:11;2.33;;;1.40;;
39612;SDS011;25303;48.896;13.342;2023-08-01T14:42:03;2.92;;;1.50;;
39612;SDS011;25303;48.896;13.342;2023-08-01T14:44:52;2.83;;;1.30;;
39612;SDS011;25303;48.896;13.342;2023-08-01T14:47:35;1.88;;;1.25;;
39612;SDS011;25303;48.896;13.342;2023-08-01T14:50:19;2.20;;;1.40;;
39612;SDS011;25303;48.896;13.342;2023-08-01T14:53:03;2.65;;;1.35;;
39612;SDS011;25303;48.896;13.342;2023-08-01T14:55:55;1.95;;;1.20;;
39612;SDS011;25303;48.896;13.342;2023-08-01T14:58:38;2.10;;;1.20;;
39612;SDS011;25303;48.896;13.342;2023-08-01T15:01:23;2.58;;;1.50;;
39612;SDS011;25303;48.896;13.342;2023-08-01T15:04:06;2.35;;;1.40;;
39612;SDS011;25303;48.896;13.342;2023-08-01T15:06:49;2.78;;;1.40;;
39612;SDS011;25303;48.896;13.342;2023-08-01T15:09:32;2.35;;;1.30;;
39612;SDS011;25303;48.896;13.342;2023-08-01T15:12:15;2.90;;;1.40;;
39612;SDS011;25303;48.896;13.342;2023-08-01T15:17:44;1.30;;;1.10;;
39612;SDS011;25303;48.896;13.342;2023-08-01T15:20:27;1.60;;;1.20;;
39612;SDS011;25303;48.896;13.342;2023-08-01T15:23:10;2.00;;;1.10;;
39612;SDS011;25303;48.896;13.342;2023-08-01T15:25:54;3.05;;;1.77;;
39612;SDS011;25303;48.896;13.342;2023-08-01T15:28:38;2.42;;;1.30;;
39612;SDS011;25303;48.896;13.342;2023-08-01T15:31:21;3.53;;;1.30;;
39612;SDS011;25303;48.896;13.342;2023-08-01T15:34:05;2.22;;;1.40;;
39612;SDS011;25303;48.896;13.342;2023-08-01T15:36:49;2.47;;;1.15;;
39612;SDS011;25303;48.896;13.342;2023-08-01T15:39:32;2.85;;;1.60;;
39612;SDS011;25303;48.896;13.342;2023-08-01T15:42:15;2.13;;;1.30;;
39612;SDS011;25303;48.896;13.342;2023-08-01T15:44:58;1.67;;;1.20;;
39612;SDS011;25303;48.896;13.342;2023-08-01T15:47:41;2.60;;;1.33;;
39612;SDS011;25303;48.896;13.342;2023-08-01T15:50:26;1.65;;;1.20;;
39612;SDS011;25303;48.896;13.342;2023-08-01T15:53:09;1.80;;;1.23;;
39612;SDS011;25303;48.896;13.342;2023-08-01T15:55:55;2.03;;;1.15;;
39612;SDS011;25303;48.896;13.342;2023-08-01T15:58:39;2.60;;;1.15;;
39612;SDS011;25303;48.896;13.342;2023-08-01T16:01:22;1.77;;;1.10;;
39612;SDS011;25303;48.896;13.342;2023-08-01T16:04:05;2.80;;;1.05;;
39612;SDS011;25303;48.896;13.342;2023-08-01T16:06:49;1.90;;;1.00;;
39612;SDS011;25303;48.896;13.342;2023-08-01T16:09:33;3.30;;;1.10;;
39612;SDS011;25303;48.896;13.342;2023-08-01T16:12:15;1.55;;;1.10;;
39612;SDS011;25303;48.896;13.342;2023-08-01T16:14:58;1.48;;;0.90;;
39612;SDS011;25303;48.896;13.342;2023-08-01T16:17:41;1.92;;;1.10;;
39612;SDS011;25303;48.896;13.342;2023-08-01T16:20:24;1.67;;;0.90;;
39612;SDS011;25303;48.896;13.342;2023-08-01T16:23:09;1.95;;;1.10;;
39612;SDS011;25303;48.896;13.342;2023-08-01T16:28:35;1.60;;;0.85;;
39612;SDS011;25303;48.896;13.342;2023-08-01T16:31:18;1.13;;;0.70;;
39612;SDS011;25303;48.896;13.342;2023-08-01T16:34:01;0.95;;;0.80;;
39612;SDS011;25303;48.896;13.342;2023-08-01T16:36:44;2.00;;;1.10;;
39612;SDS011;25303;48.896;13.342;2023-08-01T16:39:28;1.10;;;0.70;;
39612;SDS011;25303;48.896;13.342;2023-08-01T16:42:11;1.67;;;0.75;;
39612;SDS011;25303;48.896;13.342;2023-08-01T16:44:54;1.95;;;0.90;;